<?xml version="1.0" encoding="UTF-8" standalone="no" ?>
<gpx xmlns="http://www.topografix.com/GPX/1/1" xmlns:xsi="http://www.w3.org/2001/XMLSchema-instance" xsi:schemaLocation="http://www.topografix.com/GPX/1/1 http://www.topografix.com/GPX/1/1/gpx.xsd" version="1.1" creator="VisuGPX - https://www.visugpx.com">
  <metadata>
    <name>sources orge</name>
  </metadata>
  <trk>
    <name><![CDATA[11338235-Les souces de l'Orge]]></name>
    <trkseg>
      <trkpt lat="48.53086" lon="1.96256">
        <ele>109</ele>
        <time>2020-05-23T09:01:37Z</time>
      </trkpt>
      <trkpt lat="48.53052" lon="1.96245">
        <ele>109</ele>
        <time>2020-05-23T09:02:23Z</time>
      </trkpt>
      <trkpt lat="48.52931" lon="1.96199">
        <ele>109</ele>
        <time>2020-05-23T09:05:10Z</time>
      </trkpt>
      <trkpt lat="48.5292" lon="1.96195">
        <ele>109</ele>
        <time>2020-05-23T09:05:25Z</time>
      </trkpt>
      <trkpt lat="48.5291" lon="1.96194">
        <ele>109</ele>
        <time>2020-05-23T09:05:38Z</time>
      </trkpt>
      <trkpt lat="48.52899" lon="1.96197">
        <ele>110</ele>
        <time>2020-05-23T09:05:53Z</time>
      </trkpt>
      <trkpt lat="48.52894" lon="1.962">
        <ele>110</ele>
        <time>2020-05-23T09:06:00Z</time>
      </trkpt>
      <trkpt lat="48.52884" lon="1.96187">
        <ele>111</ele>
        <time>2020-05-23T09:06:18Z</time>
      </trkpt>
      <trkpt lat="48.52878" lon="1.96185">
        <ele>111</ele>
        <time>2020-05-23T09:06:26Z</time>
      </trkpt>
      <trkpt lat="48.528" lon="1.96171">
        <ele>117</ele>
        <time>2020-05-23T09:08:11Z</time>
      </trkpt>
      <trkpt lat="48.52719" lon="1.96169">
        <ele>123</ele>
        <time>2020-05-23T09:09:59Z</time>
      </trkpt>
      <trkpt lat="48.52695" lon="1.96167">
        <ele>124</ele>
        <time>2020-05-23T09:10:31Z</time>
      </trkpt>
      <trkpt lat="48.52683" lon="1.96147">
        <ele>124</ele>
        <time>2020-05-23T09:10:55Z</time>
      </trkpt>
      <trkpt lat="48.52634" lon="1.9606">
        <ele>123</ele>
        <time>2020-05-23T09:12:36Z</time>
      </trkpt>
      <trkpt lat="48.52613" lon="1.96019">
        <ele>123</ele>
        <time>2020-05-23T09:13:22Z</time>
      </trkpt>
      <trkpt lat="48.52586" lon="1.9596">
        <ele>121</ele>
        <time>2020-05-23T09:14:25Z</time>
      </trkpt>
      <trkpt lat="48.5255" lon="1.95857">
        <ele>118</ele>
        <time>2020-05-23T09:16:08Z</time>
      </trkpt>
      <trkpt lat="48.52536" lon="1.95833">
        <ele>118</ele>
        <time>2020-05-23T09:16:36Z</time>
      </trkpt>
      <trkpt lat="48.52496" lon="1.95743">
        <ele>118</ele>
        <time>2020-05-23T09:18:12Z</time>
      </trkpt>
      <trkpt lat="48.52479" lon="1.95725">
        <ele>117</ele>
        <time>2020-05-23T09:18:40Z</time>
      </trkpt>
      <trkpt lat="48.52438" lon="1.95716">
        <ele>118</ele>
        <time>2020-05-23T09:19:35Z</time>
      </trkpt>
      <trkpt lat="48.52379" lon="1.9572">
        <ele>119</ele>
        <time>2020-05-23T09:20:54Z</time>
      </trkpt>
      <trkpt lat="48.52354" lon="1.95731">
        <ele>120</ele>
        <time>2020-05-23T09:21:29Z</time>
      </trkpt>
      <trkpt lat="48.52343" lon="1.9573">
        <ele>120</ele>
        <time>2020-05-23T09:21:44Z</time>
      </trkpt>
      <trkpt lat="48.5227" lon="1.9567">
        <ele>129</ele>
        <time>2020-05-23T09:23:34Z</time>
      </trkpt>
      <trkpt lat="48.52256" lon="1.9565">
        <ele>130</ele>
        <time>2020-05-23T09:24:00Z</time>
      </trkpt>
      <trkpt lat="48.52246" lon="1.95605">
        <ele>128</ele>
        <time>2020-05-23T09:24:42Z</time>
      </trkpt>
      <trkpt lat="48.52243" lon="1.95477">
        <ele>119</ele>
        <time>2020-05-23T09:26:35Z</time>
      </trkpt>
      <trkpt lat="48.52239" lon="1.95463">
        <ele>119</ele>
        <time>2020-05-23T09:26:49Z</time>
      </trkpt>
      <trkpt lat="48.52234" lon="1.95454">
        <ele>119</ele>
        <time>2020-05-23T09:26:59Z</time>
      </trkpt>
      <trkpt lat="48.52228" lon="1.95451">
        <ele>118</ele>
        <time>2020-05-23T09:27:08Z</time>
      </trkpt>
      <trkpt lat="48.52172" lon="1.9548">
        <ele>118</ele>
        <time>2020-05-23T09:28:27Z</time>
      </trkpt>
      <trkpt lat="48.52142" lon="1.95502">
        <ele>120</ele>
        <time>2020-05-23T09:29:11Z</time>
      </trkpt>
      <trkpt lat="48.52131" lon="1.95506">
        <ele>121</ele>
        <time>2020-05-23T09:29:26Z</time>
      </trkpt>
      <trkpt lat="48.52104" lon="1.95498">
        <ele>120</ele>
        <time>2020-05-23T09:30:03Z</time>
      </trkpt>
      <trkpt lat="48.52074" lon="1.95486">
        <ele>121</ele>
        <time>2020-05-23T09:30:44Z</time>
      </trkpt>
      <trkpt lat="48.52034" lon="1.95402">
        <ele>119</ele>
        <time>2020-05-23T09:32:16Z</time>
      </trkpt>
      <trkpt lat="48.51993" lon="1.95337">
        <ele>120</ele>
        <time>2020-05-23T09:33:35Z</time>
      </trkpt>
      <trkpt lat="48.5193" lon="1.95284">
        <ele>125</ele>
        <time>2020-05-23T09:35:11Z</time>
      </trkpt>
      <trkpt lat="48.51889" lon="1.95236">
        <ele>124</ele>
        <time>2020-05-23T09:36:21Z</time>
      </trkpt>
      <trkpt lat="48.51859" lon="1.95215">
        <ele>123</ele>
        <time>2020-05-23T09:37:05Z</time>
      </trkpt>
      <trkpt lat="48.51831" lon="1.95205">
        <ele>123</ele>
        <time>2020-05-23T09:37:43Z</time>
      </trkpt>
      <trkpt lat="48.51816" lon="1.95188">
        <ele>124</ele>
        <time>2020-05-23T09:38:08Z</time>
      </trkpt>
      <trkpt lat="48.51806" lon="1.95166">
        <ele>124</ele>
        <time>2020-05-23T09:38:32Z</time>
      </trkpt>
      <trkpt lat="48.51787" lon="1.95135">
        <ele>127</ele>
        <time>2020-05-23T09:39:09Z</time>
      </trkpt>
      <trkpt lat="48.51773" lon="1.95121">
        <ele>129</ele>
        <time>2020-05-23T09:39:31Z</time>
      </trkpt>
      <trkpt lat="48.51762" lon="1.95102">
        <ele>131</ele>
        <time>2020-05-23T09:39:54Z</time>
      </trkpt>
      <trkpt lat="48.51776" lon="1.95072">
        <ele>129</ele>
        <time>2020-05-23T09:40:26Z</time>
      </trkpt>
      <trkpt lat="48.518" lon="1.95031">
        <ele>127</ele>
        <time>2020-05-23T09:41:15Z</time>
      </trkpt>
      <trkpt lat="48.51823" lon="1.94986">
        <ele>125</ele>
        <time>2020-05-23T09:42:05Z</time>
      </trkpt>
      <trkpt lat="48.51825" lon="1.94915">
        <ele>125</ele>
        <time>2020-05-23T09:43:08Z</time>
      </trkpt>
      <trkpt lat="48.51819" lon="1.94879">
        <ele>125</ele>
        <time>2020-05-23T09:43:40Z</time>
      </trkpt>
      <trkpt lat="48.5181" lon="1.94839">
        <ele>124</ele>
        <time>2020-05-23T09:44:18Z</time>
      </trkpt>
      <trkpt lat="48.51804" lon="1.94832">
        <ele>125</ele>
        <time>2020-05-23T09:44:28Z</time>
      </trkpt>
      <trkpt lat="48.51782" lon="1.94835">
        <ele>127</ele>
        <time>2020-05-23T09:44:57Z</time>
      </trkpt>
      <trkpt lat="48.51739" lon="1.94856">
        <ele>133</ele>
        <time>2020-05-23T09:45:58Z</time>
      </trkpt>
      <trkpt lat="48.51724" lon="1.94854">
        <ele>134</ele>
        <time>2020-05-23T09:46:18Z</time>
      </trkpt>
      <trkpt lat="48.51705" lon="1.94847">
        <ele>134</ele>
        <time>2020-05-23T09:46:44Z</time>
      </trkpt>
      <trkpt lat="48.51674" lon="1.94827">
        <ele>133</ele>
        <time>2020-05-23T09:47:29Z</time>
      </trkpt>
      <trkpt lat="48.51651" lon="1.94801">
        <ele>130</ele>
        <time>2020-05-23T09:48:07Z</time>
      </trkpt>
      <trkpt lat="48.51637" lon="1.94775">
        <ele>127</ele>
        <time>2020-05-23T09:48:37Z</time>
      </trkpt>
      <trkpt lat="48.51627" lon="1.94727">
        <ele>122</ele>
        <time>2020-05-23T09:49:21Z</time>
      </trkpt>
      <trkpt lat="48.51612" lon="1.9471">
        <ele>121</ele>
        <time>2020-05-23T09:49:46Z</time>
      </trkpt>
      <trkpt lat="48.51586" lon="1.94708">
        <ele>122</ele>
        <time>2020-05-23T09:50:21Z</time>
      </trkpt>
      <trkpt lat="48.51564" lon="1.94728">
        <ele>124</ele>
        <time>2020-05-23T09:50:55Z</time>
      </trkpt>
      <trkpt lat="48.51537" lon="1.94766">
        <ele>126</ele>
        <time>2020-05-23T09:51:45Z</time>
      </trkpt>
      <trkpt lat="48.51434" lon="1.9482">
        <ele>127</ele>
        <time>2020-05-23T09:54:10Z</time>
      </trkpt>
      <trkpt lat="48.51361" lon="1.94877">
        <ele>133</ele>
        <time>2020-05-23T09:56:00Z</time>
      </trkpt>
      <trkpt lat="48.51354" lon="1.94879">
        <ele>134</ele>
        <time>2020-05-23T09:56:09Z</time>
      </trkpt>
      <trkpt lat="48.51347" lon="1.94869">
        <ele>133</ele>
        <time>2020-05-23T09:56:22Z</time>
      </trkpt>
      <trkpt lat="48.51327" lon="1.94804">
        <ele>129</ele>
        <time>2020-05-23T09:57:26Z</time>
      </trkpt>
      <trkpt lat="48.51317" lon="1.94785">
        <ele>130</ele>
        <time>2020-05-23T09:57:47Z</time>
      </trkpt>
      <trkpt lat="48.51285" lon="1.94751">
        <ele>134</ele>
        <time>2020-05-23T09:58:39Z</time>
      </trkpt>
      <trkpt lat="48.51278" lon="1.94736">
        <ele>134</ele>
        <time>2020-05-23T09:58:55Z</time>
      </trkpt>
      <trkpt lat="48.51276" lon="1.94672">
        <ele>134</ele>
        <time>2020-05-23T09:59:52Z</time>
      </trkpt>
      <trkpt lat="48.51284" lon="1.94598">
        <ele>132</ele>
        <time>2020-05-23T10:00:58Z</time>
      </trkpt>
      <trkpt lat="48.51293" lon="1.94575">
        <ele>130</ele>
        <time>2020-05-23T10:01:22Z</time>
      </trkpt>
      <trkpt lat="48.51323" lon="1.94515">
        <ele>123</ele>
        <time>2020-05-23T10:02:28Z</time>
      </trkpt>
      <trkpt lat="48.51335" lon="1.94537">
        <ele>121</ele>
        <time>2020-05-23T10:02:54Z</time>
      </trkpt>
      <trkpt lat="48.51349" lon="1.94554">
        <ele>121</ele>
        <time>2020-05-23T10:03:18Z</time>
      </trkpt>
      <trkpt lat="48.51361" lon="1.94556">
        <ele>121</ele>
        <time>2020-05-23T10:03:34Z</time>
      </trkpt>
      <trkpt lat="48.51356" lon="1.94545">
        <ele>121</ele>
        <time>2020-05-23T10:03:45Z</time>
      </trkpt>
      <trkpt lat="48.51341" lon="1.9446">
        <ele>120</ele>
        <time>2020-05-23T10:05:03Z</time>
      </trkpt>
      <trkpt lat="48.51335" lon="1.94415">
        <ele>120</ele>
        <time>2020-05-23T10:05:44Z</time>
      </trkpt>
      <trkpt lat="48.51357" lon="1.94358">
        <ele>121</ele>
        <time>2020-05-23T10:06:42Z</time>
      </trkpt>
      <trkpt lat="48.51374" lon="1.9431">
        <ele>121</ele>
        <time>2020-05-23T10:07:30Z</time>
      </trkpt>
      <trkpt lat="48.51382" lon="1.94253">
        <ele>122</ele>
        <time>2020-05-23T10:08:22Z</time>
      </trkpt>
      <trkpt lat="48.51381" lon="1.94237">
        <ele>122</ele>
        <time>2020-05-23T10:08:36Z</time>
      </trkpt>
      <trkpt lat="48.51377" lon="1.94225">
        <ele>123</ele>
        <time>2020-05-23T10:08:48Z</time>
      </trkpt>
      <trkpt lat="48.51365" lon="1.94197">
        <ele>124</ele>
        <time>2020-05-23T10:09:17Z</time>
      </trkpt>
      <trkpt lat="48.51316" lon="1.94101">
        <ele>131</ele>
        <time>2020-05-23T10:11:04Z</time>
      </trkpt>
      <trkpt lat="48.51284" lon="1.94026">
        <ele>133</ele>
        <time>2020-05-23T10:12:23Z</time>
      </trkpt>
      <trkpt lat="48.51264" lon="1.93964">
        <ele>134</ele>
        <time>2020-05-23T10:13:24Z</time>
      </trkpt>
      <trkpt lat="48.51248" lon="1.93889">
        <ele>132</ele>
        <time>2020-05-23T10:14:34Z</time>
      </trkpt>
      <trkpt lat="48.51235" lon="1.9384">
        <ele>130</ele>
        <time>2020-05-23T10:15:21Z</time>
      </trkpt>
      <trkpt lat="48.51216" lon="1.93812">
        <ele>131</ele>
        <time>2020-05-23T10:15:56Z</time>
      </trkpt>
      <trkpt lat="48.51203" lon="1.93785">
        <ele>131</ele>
        <time>2020-05-23T10:16:26Z</time>
      </trkpt>
      <trkpt lat="48.51187" lon="1.93742">
        <ele>132</ele>
        <time>2020-05-23T10:17:09Z</time>
      </trkpt>
      <trkpt lat="48.51145" lon="1.93571">
        <ele>131</ele>
        <time>2020-05-23T10:19:50Z</time>
      </trkpt>
      <trkpt lat="48.51128" lon="1.93497">
        <ele>130</ele>
        <time>2020-05-23T10:21:00Z</time>
      </trkpt>
      <trkpt lat="48.51084" lon="1.9332">
        <ele>132</ele>
        <time>2020-05-23T10:23:47Z</time>
      </trkpt>
      <trkpt lat="48.51079" lon="1.93284">
        <ele>132</ele>
        <time>2020-05-23T10:24:19Z</time>
      </trkpt>
      <trkpt lat="48.5108" lon="1.93256">
        <ele>131</ele>
        <time>2020-05-23T10:24:44Z</time>
      </trkpt>
      <trkpt lat="48.51079" lon="1.9324">
        <ele>131</ele>
        <time>2020-05-23T10:24:58Z</time>
      </trkpt>
      <trkpt lat="48.51061" lon="1.93193">
        <ele>132</ele>
        <time>2020-05-23T10:25:46Z</time>
      </trkpt>
      <trkpt lat="48.51049" lon="1.93176">
        <ele>132</ele>
        <time>2020-05-23T10:26:08Z</time>
      </trkpt>
      <trkpt lat="48.51016" lon="1.93142">
        <ele>133</ele>
        <time>2020-05-23T10:27:02Z</time>
      </trkpt>
      <trkpt lat="48.50978" lon="1.93119">
        <ele>130</ele>
        <time>2020-05-23T10:27:56Z</time>
      </trkpt>
      <trkpt lat="48.50972" lon="1.93113">
        <ele>129</ele>
        <time>2020-05-23T10:28:06Z</time>
      </trkpt>
      <trkpt lat="48.50962" lon="1.93088">
        <ele>127</ele>
        <time>2020-05-23T10:28:32Z</time>
      </trkpt>
      <trkpt lat="48.50959" lon="1.93077">
        <ele>127</ele>
        <time>2020-05-23T10:28:42Z</time>
      </trkpt>
      <trkpt lat="48.50955" lon="1.93064">
        <ele>127</ele>
        <time>2020-05-23T10:28:55Z</time>
      </trkpt>
      <trkpt lat="48.50952" lon="1.93055">
        <ele>127</ele>
        <time>2020-05-23T10:29:04Z</time>
      </trkpt>
      <trkpt lat="48.50928" lon="1.93018">
        <ele>126</ele>
        <time>2020-05-23T10:29:49Z</time>
      </trkpt>
      <trkpt lat="48.50922" lon="1.9301">
        <ele>126</ele>
        <time>2020-05-23T10:30:00Z</time>
      </trkpt>
      <trkpt lat="48.50923" lon="1.92981">
        <ele>126</ele>
        <time>2020-05-23T10:30:26Z</time>
      </trkpt>
      <trkpt lat="48.50956" lon="1.92908">
        <ele>128</ele>
        <time>2020-05-23T10:31:44Z</time>
      </trkpt>
      <trkpt lat="48.50978" lon="1.92902">
        <ele>129</ele>
        <time>2020-05-23T10:32:14Z</time>
      </trkpt>
      <trkpt lat="48.50989" lon="1.92854">
        <ele>128</ele>
        <time>2020-05-23T10:32:59Z</time>
      </trkpt>
      <trkpt lat="48.51017" lon="1.92857">
        <ele>129</ele>
        <time>2020-05-23T10:33:36Z</time>
      </trkpt>
      <trkpt lat="48.51007" lon="1.92815">
        <ele>128</ele>
        <time>2020-05-23T10:34:16Z</time>
      </trkpt>
      <trkpt lat="48.50992" lon="1.92763">
        <ele>127</ele>
        <time>2020-05-23T10:35:06Z</time>
      </trkpt>
      <trkpt lat="48.50962" lon="1.9259">
        <ele>130</ele>
        <time>2020-05-23T10:37:44Z</time>
      </trkpt>
      <trkpt lat="48.5096" lon="1.92573">
        <ele>130</ele>
        <time>2020-05-23T10:37:59Z</time>
      </trkpt>
      <trkpt lat="48.50962" lon="1.92546">
        <ele>131</ele>
        <time>2020-05-23T10:38:23Z</time>
      </trkpt>
      <trkpt lat="48.50974" lon="1.92497">
        <ele>133</ele>
        <time>2020-05-23T10:39:09Z</time>
      </trkpt>
      <trkpt lat="48.50972" lon="1.92481">
        <ele>133</ele>
        <time>2020-05-23T10:39:24Z</time>
      </trkpt>
      <trkpt lat="48.50966" lon="1.92461">
        <ele>133</ele>
        <time>2020-05-23T10:39:43Z</time>
      </trkpt>
      <trkpt lat="48.50957" lon="1.92447">
        <ele>132</ele>
        <time>2020-05-23T10:40:00Z</time>
      </trkpt>
      <trkpt lat="48.50947" lon="1.92356">
        <ele>134</ele>
        <time>2020-05-23T10:41:22Z</time>
      </trkpt>
      <trkpt lat="48.50928" lon="1.92165">
        <ele>135</ele>
        <time>2020-05-23T10:44:13Z</time>
      </trkpt>
      <trkpt lat="48.50918" lon="1.92095">
        <ele>137</ele>
        <time>2020-05-23T10:45:16Z</time>
      </trkpt>
      <trkpt lat="48.50901" lon="1.92041">
        <ele>138</ele>
        <time>2020-05-23T10:46:09Z</time>
      </trkpt>
      <trkpt lat="48.50895" lon="1.92009">
        <ele>137</ele>
        <time>2020-05-23T10:46:38Z</time>
      </trkpt>
      <trkpt lat="48.50876" lon="1.91938">
        <ele>135</ele>
        <time>2020-05-23T10:47:46Z</time>
      </trkpt>
      <trkpt lat="48.50877" lon="1.91918">
        <ele>135</ele>
        <time>2020-05-23T10:48:04Z</time>
      </trkpt>
      <trkpt lat="48.50883" lon="1.91901">
        <ele>135</ele>
        <time>2020-05-23T10:48:21Z</time>
      </trkpt>
      <trkpt lat="48.50908" lon="1.91861">
        <ele>135</ele>
        <time>2020-05-23T10:49:09Z</time>
      </trkpt>
      <trkpt lat="48.50916" lon="1.91861">
        <ele>136</ele>
        <time>2020-05-23T10:49:20Z</time>
      </trkpt>
      <trkpt lat="48.5093" lon="1.91856">
        <ele>137</ele>
        <time>2020-05-23T10:49:39Z</time>
      </trkpt>
      <trkpt lat="48.5097" lon="1.9182">
        <ele>139</ele>
        <time>2020-05-23T10:50:41Z</time>
      </trkpt>
      <trkpt lat="48.50998" lon="1.91799">
        <ele>140</ele>
        <time>2020-05-23T10:51:23Z</time>
      </trkpt>
      <trkpt lat="48.51019" lon="1.91789">
        <ele>142</ele>
        <time>2020-05-23T10:51:52Z</time>
      </trkpt>
      <trkpt lat="48.51047" lon="1.91785">
        <ele>145</ele>
        <time>2020-05-23T10:52:30Z</time>
      </trkpt>
      <trkpt lat="48.51074" lon="1.91776">
        <ele>148</ele>
        <time>2020-05-23T10:53:07Z</time>
      </trkpt>
      <trkpt lat="48.51128" lon="1.91751">
        <ele>151</ele>
        <time>2020-05-23T10:54:22Z</time>
      </trkpt>
      <trkpt lat="48.51159" lon="1.91743">
        <ele>152</ele>
        <time>2020-05-23T10:55:04Z</time>
      </trkpt>
      <trkpt lat="48.51181" lon="1.91746">
        <ele>154</ele>
        <time>2020-05-23T10:55:34Z</time>
      </trkpt>
      <trkpt lat="48.51203" lon="1.9176">
        <ele>155</ele>
        <time>2020-05-23T10:56:06Z</time>
      </trkpt>
      <trkpt lat="48.51278" lon="1.9183">
        <ele>158</ele>
        <time>2020-05-23T10:58:03Z</time>
      </trkpt>
      <trkpt lat="48.51364" lon="1.91896">
        <ele>159</ele>
        <time>2020-05-23T11:00:12Z</time>
      </trkpt>
      <trkpt lat="48.5137" lon="1.91896">
        <ele>159</ele>
        <time>2020-05-23T11:00:20Z</time>
      </trkpt>
      <trkpt lat="48.51437" lon="1.91852">
        <ele>159</ele>
        <time>2020-05-23T11:01:57Z</time>
      </trkpt>
      <trkpt lat="48.51447" lon="1.91818">
        <ele>159</ele>
        <time>2020-05-23T11:02:30Z</time>
      </trkpt>
      <trkpt lat="48.51495" lon="1.91843">
        <ele>159</ele>
        <time>2020-05-23T11:03:38Z</time>
      </trkpt>
      <trkpt lat="48.51539" lon="1.91859">
        <ele>159</ele>
        <time>2020-05-23T11:04:39Z</time>
      </trkpt>
      <trkpt lat="48.51556" lon="1.91861">
        <ele>158</ele>
        <time>2020-05-23T11:05:01Z</time>
      </trkpt>
      <trkpt lat="48.51624" lon="1.91858">
        <ele>158</ele>
        <time>2020-05-23T11:06:32Z</time>
      </trkpt>
      <trkpt lat="48.51634" lon="1.9186">
        <ele>158</ele>
        <time>2020-05-23T11:06:46Z</time>
      </trkpt>
      <trkpt lat="48.51979" lon="1.91814">
        <ele>158</ele>
        <time>2020-05-23T11:14:28Z</time>
      </trkpt>
      <trkpt lat="48.5206" lon="1.91787">
        <ele>158</ele>
        <time>2020-05-23T11:16:18Z</time>
      </trkpt>
      <trkpt lat="48.52171" lon="1.91736">
        <ele>160</ele>
        <time>2020-05-23T11:18:53Z</time>
      </trkpt>
      <trkpt lat="48.52267" lon="1.91737">
        <ele>159</ele>
        <time>2020-05-23T11:21:01Z</time>
      </trkpt>
      <trkpt lat="48.52385" lon="1.91797">
        <ele>157</ele>
        <time>2020-05-23T11:23:47Z</time>
      </trkpt>
      <trkpt lat="48.5247" lon="1.9181">
        <ele>156</ele>
        <time>2020-05-23T11:25:41Z</time>
      </trkpt>
      <trkpt lat="48.52579" lon="1.91737">
        <ele>159</ele>
        <time>2020-05-23T11:28:21Z</time>
      </trkpt>
      <trkpt lat="48.52637" lon="1.91714">
        <ele>159</ele>
        <time>2020-05-23T11:29:41Z</time>
      </trkpt>
      <trkpt lat="48.52712" lon="1.91809">
        <ele>158</ele>
        <time>2020-05-23T11:31:51Z</time>
      </trkpt>
      <trkpt lat="48.53133" lon="1.92095">
        <ele>152</ele>
        <time>2020-05-23T11:42:07Z</time>
      </trkpt>
      <trkpt lat="48.53155" lon="1.92097">
        <ele>153</ele>
        <time>2020-05-23T11:42:37Z</time>
      </trkpt>
      <trkpt lat="48.53171" lon="1.92118">
        <ele>155</ele>
        <time>2020-05-23T11:43:05Z</time>
      </trkpt>
      <trkpt lat="48.53188" lon="1.9214">
        <ele>157</ele>
        <time>2020-05-23T11:43:35Z</time>
      </trkpt>
      <trkpt lat="48.53209" lon="1.92166">
        <ele>159</ele>
        <time>2020-05-23T11:44:11Z</time>
      </trkpt>
      <trkpt lat="48.53222" lon="1.92198">
        <ele>160</ele>
        <time>2020-05-23T11:44:44Z</time>
      </trkpt>
      <trkpt lat="48.53287" lon="1.92254">
        <ele>163</ele>
        <time>2020-05-23T11:46:24Z</time>
      </trkpt>
      <trkpt lat="48.53374" lon="1.92307">
        <ele>164</ele>
        <time>2020-05-23T11:48:29Z</time>
      </trkpt>
      <trkpt lat="48.5341" lon="1.92345">
        <ele>164</ele>
        <time>2020-05-23T11:49:28Z</time>
      </trkpt>
      <trkpt lat="48.53444" lon="1.92396">
        <ele>164</ele>
        <time>2020-05-23T11:50:32Z</time>
      </trkpt>
      <trkpt lat="48.53475" lon="1.92436">
        <ele>164</ele>
        <time>2020-05-23T11:51:26Z</time>
      </trkpt>
      <trkpt lat="48.53507" lon="1.9252">
        <ele>165</ele>
        <time>2020-05-23T11:52:52Z</time>
      </trkpt>
      <trkpt lat="48.53527" lon="1.92553">
        <ele>165</ele>
        <time>2020-05-23T11:53:32Z</time>
      </trkpt>
      <trkpt lat="48.53578" lon="1.92617">
        <ele>165</ele>
        <time>2020-05-23T11:55:00Z</time>
      </trkpt>
      <trkpt lat="48.53597" lon="1.92649">
        <ele>165</ele>
        <time>2020-05-23T11:55:38Z</time>
      </trkpt>
      <trkpt lat="48.53627" lon="1.92669">
        <ele>164</ele>
        <time>2020-05-23T11:56:22Z</time>
      </trkpt>
      <trkpt lat="48.53702" lon="1.92706">
        <ele>160</ele>
        <time>2020-05-23T11:58:07Z</time>
      </trkpt>
      <trkpt lat="48.53735" lon="1.92723">
        <ele>158</ele>
        <time>2020-05-23T11:58:54Z</time>
      </trkpt>
      <trkpt lat="48.53749" lon="1.92732">
        <ele>157</ele>
        <time>2020-05-23T11:59:14Z</time>
      </trkpt>
      <trkpt lat="48.53855" lon="1.92785">
        <ele>147</ele>
        <time>2020-05-23T12:01:43Z</time>
      </trkpt>
      <trkpt lat="48.53869" lon="1.9279">
        <ele>148</ele>
        <time>2020-05-23T12:02:02Z</time>
      </trkpt>
      <trkpt lat="48.53885" lon="1.92816">
        <ele>149</ele>
        <time>2020-05-23T12:02:33Z</time>
      </trkpt>
      <trkpt lat="48.53902" lon="1.92838">
        <ele>150</ele>
        <time>2020-05-23T12:03:03Z</time>
      </trkpt>
      <trkpt lat="48.53921" lon="1.92883">
        <ele>154</ele>
        <time>2020-05-23T12:03:50Z</time>
      </trkpt>
      <trkpt lat="48.53979" lon="1.92957">
        <ele>160</ele>
        <time>2020-05-23T12:05:32Z</time>
      </trkpt>
      <trkpt lat="48.54002" lon="1.92985">
        <ele>161</ele>
        <time>2020-05-23T12:06:11Z</time>
      </trkpt>
      <trkpt lat="48.5403" lon="1.93019">
        <ele>162</ele>
        <time>2020-05-23T12:06:59Z</time>
      </trkpt>
      <trkpt lat="48.54065" lon="1.93094">
        <ele>158</ele>
        <time>2020-05-23T12:08:20Z</time>
      </trkpt>
      <trkpt lat="48.54072" lon="1.93114">
        <ele>157</ele>
        <time>2020-05-23T12:08:40Z</time>
      </trkpt>
      <trkpt lat="48.5408" lon="1.93148">
        <ele>154</ele>
        <time>2020-05-23T12:09:12Z</time>
      </trkpt>
      <trkpt lat="48.54149" lon="1.93288">
        <ele>147</ele>
        <time>2020-05-23T12:11:46Z</time>
      </trkpt>
      <trkpt lat="48.54179" lon="1.93344">
        <ele>144</ele>
        <time>2020-05-23T12:12:50Z</time>
      </trkpt>
      <trkpt lat="48.54234" lon="1.93432">
        <ele>140</ele>
        <time>2020-05-23T12:14:37Z</time>
      </trkpt>
      <trkpt lat="48.54255" lon="1.93472">
        <ele>139</ele>
        <time>2020-05-23T12:15:22Z</time>
      </trkpt>
      <trkpt lat="48.54266" lon="1.935">
        <ele>138</ele>
        <time>2020-05-23T12:15:51Z</time>
      </trkpt>
      <trkpt lat="48.54291" lon="1.93598">
        <ele>134</ele>
        <time>2020-05-23T12:17:23Z</time>
      </trkpt>
      <trkpt lat="48.54298" lon="1.93618">
        <ele>134</ele>
        <time>2020-05-23T12:17:43Z</time>
      </trkpt>
      <trkpt lat="48.54365" lon="1.9376">
        <ele>132</ele>
        <time>2020-05-23T12:20:18Z</time>
      </trkpt>
      <trkpt lat="48.54358" lon="1.93766">
        <ele>132</ele>
        <time>2020-05-23T12:20:28Z</time>
      </trkpt>
      <trkpt lat="48.54365" lon="1.9376">
        <ele>132</ele>
        <time>2020-05-23T12:20:39Z</time>
      </trkpt>
      <trkpt lat="48.54391" lon="1.93863">
        <ele>135</ele>
        <time>2020-05-23T12:22:16Z</time>
      </trkpt>
      <trkpt lat="48.54452" lon="1.9394">
        <ele>146</ele>
        <time>2020-05-23T12:24:02Z</time>
      </trkpt>
      <trkpt lat="48.54506" lon="1.93932">
        <ele>147</ele>
        <time>2020-05-23T12:25:15Z</time>
      </trkpt>
      <trkpt lat="48.54525" lon="1.93954">
        <ele>152</ele>
        <time>2020-05-23T12:25:47Z</time>
      </trkpt>
      <trkpt lat="48.54571" lon="1.94031">
        <ele>161</ele>
        <time>2020-05-23T12:27:18Z</time>
      </trkpt>
      <trkpt lat="48.54598" lon="1.94062">
        <ele>164</ele>
        <time>2020-05-23T12:28:04Z</time>
      </trkpt>
      <trkpt lat="48.54564" lon="1.94086">
        <ele>165</ele>
        <time>2020-05-23T12:28:54Z</time>
      </trkpt>
      <trkpt lat="48.54529" lon="1.94104">
        <ele>166</ele>
        <time>2020-05-23T12:29:43Z</time>
      </trkpt>
      <trkpt lat="48.54447" lon="1.94204">
        <ele>168</ele>
        <time>2020-05-23T12:32:04Z</time>
      </trkpt>
      <trkpt lat="48.54432" lon="1.94213">
        <ele>169</ele>
        <time>2020-05-23T12:32:25Z</time>
      </trkpt>
      <trkpt lat="48.54415" lon="1.94233">
        <ele>169</ele>
        <time>2020-05-23T12:32:54Z</time>
      </trkpt>
      <trkpt lat="48.54408" lon="1.94271">
        <ele>170</ele>
        <time>2020-05-23T12:33:29Z</time>
      </trkpt>
      <trkpt lat="48.54397" lon="1.94305">
        <ele>169</ele>
        <time>2020-05-23T12:34:02Z</time>
      </trkpt>
      <trkpt lat="48.54401" lon="1.94349">
        <ele>170</ele>
        <time>2020-05-23T12:34:42Z</time>
      </trkpt>
      <trkpt lat="48.54416" lon="1.94402">
        <ele>169</ele>
        <time>2020-05-23T12:35:33Z</time>
      </trkpt>
      <trkpt lat="48.54441" lon="1.94464">
        <ele>169</ele>
        <time>2020-05-23T12:36:37Z</time>
      </trkpt>
      <trkpt lat="48.5446" lon="1.94522">
        <ele>168</ele>
        <time>2020-05-23T12:37:34Z</time>
      </trkpt>
      <trkpt lat="48.54536" lon="1.94708">
        <ele>168</ele>
        <time>2020-05-23T12:40:47Z</time>
      </trkpt>
      <trkpt lat="48.54608" lon="1.94822">
        <ele>171</ele>
        <time>2020-05-23T12:43:06Z</time>
      </trkpt>
      <trkpt lat="48.54646" lon="1.94894">
        <ele>171</ele>
        <time>2020-05-23T12:44:27Z</time>
      </trkpt>
      <trkpt lat="48.54675" lon="1.94939">
        <ele>171</ele>
        <time>2020-05-23T12:45:23Z</time>
      </trkpt>
      <trkpt lat="48.54677" lon="1.94955">
        <ele>170</ele>
        <time>2020-05-23T12:45:37Z</time>
      </trkpt>
      <trkpt lat="48.54668" lon="1.95083">
        <ele>165</ele>
        <time>2020-05-23T12:47:31Z</time>
      </trkpt>
      <trkpt lat="48.54675" lon="1.95132">
        <ele>165</ele>
        <time>2020-05-23T12:48:15Z</time>
      </trkpt>
      <trkpt lat="48.54674" lon="1.9517">
        <ele>164</ele>
        <time>2020-05-23T12:48:49Z</time>
      </trkpt>
      <trkpt lat="48.5467" lon="1.95187">
        <ele>164</ele>
        <time>2020-05-23T12:49:05Z</time>
      </trkpt>
      <trkpt lat="48.54659" lon="1.95204">
        <ele>164</ele>
        <time>2020-05-23T12:49:26Z</time>
      </trkpt>
      <trkpt lat="48.54654" lon="1.95208">
        <ele>165</ele>
        <time>2020-05-23T12:49:33Z</time>
      </trkpt>
      <trkpt lat="48.54648" lon="1.95209">
        <ele>165</ele>
        <time>2020-05-23T12:49:41Z</time>
      </trkpt>
      <trkpt lat="48.54634" lon="1.95204">
        <ele>165</ele>
        <time>2020-05-23T12:50:01Z</time>
      </trkpt>
      <trkpt lat="48.54634" lon="1.95204">
        <ele>165</ele>
        <time>2020-05-23T12:50:01Z</time>
      </trkpt>
      <trkpt lat="48.5451" lon="1.95165">
        <ele>166</ele>
        <time>2020-05-23T12:52:50Z</time>
      </trkpt>
      <trkpt lat="48.5447" lon="1.95157">
        <ele>166</ele>
        <time>2020-05-23T12:53:44Z</time>
      </trkpt>
      <trkpt lat="48.54417" lon="1.95116">
        <ele>165</ele>
        <time>2020-05-23T12:55:03Z</time>
      </trkpt>
      <trkpt lat="48.54341" lon="1.95125">
        <ele>163</ele>
        <time>2020-05-23T12:56:45Z</time>
      </trkpt>
      <trkpt lat="48.54307" lon="1.94947">
        <ele>145</ele>
        <time>2020-05-23T12:59:28Z</time>
      </trkpt>
      <trkpt lat="48.54293" lon="1.94957">
        <ele>144</ele>
        <time>2020-05-23T12:59:49Z</time>
      </trkpt>
      <trkpt lat="48.54269" lon="1.94965">
        <ele>143</ele>
        <time>2020-05-23T13:00:22Z</time>
      </trkpt>
      <trkpt lat="48.54238" lon="1.94959">
        <ele>141</ele>
        <time>2020-05-23T13:01:04Z</time>
      </trkpt>
      <trkpt lat="48.54209" lon="1.9495">
        <ele>141</ele>
        <time>2020-05-23T13:01:43Z</time>
      </trkpt>
      <trkpt lat="48.54192" lon="1.94948">
        <ele>140</ele>
        <time>2020-05-23T13:02:06Z</time>
      </trkpt>
      <trkpt lat="48.54112" lon="1.94935">
        <ele>137</ele>
        <time>2020-05-23T13:03:53Z</time>
      </trkpt>
      <trkpt lat="48.54074" lon="1.94931">
        <ele>135</ele>
        <time>2020-05-23T13:04:44Z</time>
      </trkpt>
      <trkpt lat="48.54069" lon="1.94974">
        <ele>135</ele>
        <time>2020-05-23T13:05:23Z</time>
      </trkpt>
      <trkpt lat="48.54065" lon="1.95028">
        <ele>135</ele>
        <time>2020-05-23T13:06:11Z</time>
      </trkpt>
      <trkpt lat="48.54071" lon="1.95056">
        <ele>136</ele>
        <time>2020-05-23T13:06:37Z</time>
      </trkpt>
      <trkpt lat="48.54073" lon="1.95089">
        <ele>137</ele>
        <time>2020-05-23T13:07:06Z</time>
      </trkpt>
      <trkpt lat="48.54067" lon="1.95113">
        <ele>138</ele>
        <time>2020-05-23T13:07:29Z</time>
      </trkpt>
      <trkpt lat="48.54057" lon="1.95129">
        <ele>137</ele>
        <time>2020-05-23T13:07:48Z</time>
      </trkpt>
      <trkpt lat="48.54016" lon="1.95163">
        <ele>132</ele>
        <time>2020-05-23T13:08:50Z</time>
      </trkpt>
      <trkpt lat="48.54" lon="1.95197">
        <ele>132</ele>
        <time>2020-05-23T13:09:27Z</time>
      </trkpt>
      <trkpt lat="48.54" lon="1.95219">
        <ele>134</ele>
        <time>2020-05-23T13:09:47Z</time>
      </trkpt>
      <trkpt lat="48.53988" lon="1.95252">
        <ele>136</ele>
        <time>2020-05-23T13:10:20Z</time>
      </trkpt>
      <trkpt lat="48.53978" lon="1.95258">
        <ele>136</ele>
        <time>2020-05-23T13:10:34Z</time>
      </trkpt>
      <trkpt lat="48.53956" lon="1.95261">
        <ele>136</ele>
        <time>2020-05-23T13:11:04Z</time>
      </trkpt>
      <trkpt lat="48.53947" lon="1.9526">
        <ele>136</ele>
        <time>2020-05-23T13:11:16Z</time>
      </trkpt>
      <trkpt lat="48.53936" lon="1.95255">
        <ele>135</ele>
        <time>2020-05-23T13:11:31Z</time>
      </trkpt>
      <trkpt lat="48.53928" lon="1.95242">
        <ele>134</ele>
        <time>2020-05-23T13:11:47Z</time>
      </trkpt>
      <trkpt lat="48.5392" lon="1.95218">
        <ele>131</ele>
        <time>2020-05-23T13:12:11Z</time>
      </trkpt>
      <trkpt lat="48.53909" lon="1.95191">
        <ele>128</ele>
        <time>2020-05-23T13:12:39Z</time>
      </trkpt>
      <trkpt lat="48.53886" lon="1.95172">
        <ele>126</ele>
        <time>2020-05-23T13:13:14Z</time>
      </trkpt>
      <trkpt lat="48.53852" lon="1.95262">
        <ele>133</ele>
        <time>2020-05-23T13:14:45Z</time>
      </trkpt>
      <trkpt lat="48.53839" lon="1.95311">
        <ele>136</ele>
        <time>2020-05-23T13:15:32Z</time>
      </trkpt>
      <trkpt lat="48.53852" lon="1.95351">
        <ele>141</ele>
        <time>2020-05-23T13:16:11Z</time>
      </trkpt>
      <trkpt lat="48.53856" lon="1.95402">
        <ele>146</ele>
        <time>2020-05-23T13:16:57Z</time>
      </trkpt>
      <trkpt lat="48.53843" lon="1.9542">
        <ele>146</ele>
        <time>2020-05-23T13:17:20Z</time>
      </trkpt>
      <trkpt lat="48.53818" lon="1.95431">
        <ele>144</ele>
        <time>2020-05-23T13:17:55Z</time>
      </trkpt>
      <trkpt lat="48.53782" lon="1.95439">
        <ele>141</ele>
        <time>2020-05-23T13:18:43Z</time>
      </trkpt>
      <trkpt lat="48.53772" lon="1.95456">
        <ele>142</ele>
        <time>2020-05-23T13:19:03Z</time>
      </trkpt>
      <trkpt lat="48.53743" lon="1.9553">
        <ele>145</ele>
        <time>2020-05-23T13:20:19Z</time>
      </trkpt>
      <trkpt lat="48.53732" lon="1.95592">
        <ele>146</ele>
        <time>2020-05-23T13:21:16Z</time>
      </trkpt>
      <trkpt lat="48.53733" lon="1.95623">
        <ele>147</ele>
        <time>2020-05-23T13:21:44Z</time>
      </trkpt>
      <trkpt lat="48.53731" lon="1.95657">
        <ele>148</ele>
        <time>2020-05-23T13:22:14Z</time>
      </trkpt>
      <trkpt lat="48.53714" lon="1.95691">
        <ele>147</ele>
        <time>2020-05-23T13:22:51Z</time>
      </trkpt>
      <trkpt lat="48.53704" lon="1.95706">
        <ele>147</ele>
        <time>2020-05-23T13:23:10Z</time>
      </trkpt>
      <trkpt lat="48.53665" lon="1.9574">
        <ele>145</ele>
        <time>2020-05-23T13:24:10Z</time>
      </trkpt>
      <trkpt lat="48.53641" lon="1.958">
        <ele>145</ele>
        <time>2020-05-23T13:25:12Z</time>
      </trkpt>
      <trkpt lat="48.53633" lon="1.95833">
        <ele>146</ele>
        <time>2020-05-23T13:25:43Z</time>
      </trkpt>
      <trkpt lat="48.53608" lon="1.95907">
        <ele>144</ele>
        <time>2020-05-23T13:26:57Z</time>
      </trkpt>
      <trkpt lat="48.53591" lon="1.9594">
        <ele>144</ele>
        <time>2020-05-23T13:27:34Z</time>
      </trkpt>
      <trkpt lat="48.5357" lon="1.95999">
        <ele>145</ele>
        <time>2020-05-23T13:28:33Z</time>
      </trkpt>
      <trkpt lat="48.53552" lon="1.96027">
        <ele>144</ele>
        <time>2020-05-23T13:29:07Z</time>
      </trkpt>
      <trkpt lat="48.53512" lon="1.96076">
        <ele>141</ele>
        <time>2020-05-23T13:30:16Z</time>
      </trkpt>
      <trkpt lat="48.53513" lon="1.96079">
        <ele>142</ele>
        <time>2020-05-23T13:30:19Z</time>
      </trkpt>
      <trkpt lat="48.53517" lon="1.96092">
        <ele>143</ele>
        <time>2020-05-23T13:30:32Z</time>
      </trkpt>
      <trkpt lat="48.53527" lon="1.96176">
        <ele>146</ele>
        <time>2020-05-23T13:31:47Z</time>
      </trkpt>
      <trkpt lat="48.53524" lon="1.96213">
        <ele>147</ele>
        <time>2020-05-23T13:32:20Z</time>
      </trkpt>
      <trkpt lat="48.53518" lon="1.96249">
        <ele>148</ele>
        <time>2020-05-23T13:32:53Z</time>
      </trkpt>
      <trkpt lat="48.53502" lon="1.96303">
        <ele>151</ele>
        <time>2020-05-23T13:33:45Z</time>
      </trkpt>
      <trkpt lat="48.53465" lon="1.96373">
        <ele>151</ele>
        <time>2020-05-23T13:35:04Z</time>
      </trkpt>
      <trkpt lat="48.53451" lon="1.964">
        <ele>152</ele>
        <time>2020-05-23T13:35:35Z</time>
      </trkpt>
      <trkpt lat="48.53426" lon="1.96451">
        <ele>153</ele>
        <time>2020-05-23T13:36:31Z</time>
      </trkpt>
      <trkpt lat="48.5338" lon="1.96588">
        <ele>149</ele>
        <time>2020-05-23T13:38:46Z</time>
      </trkpt>
      <trkpt lat="48.53353" lon="1.96654">
        <ele>147</ele>
        <time>2020-05-23T13:39:55Z</time>
      </trkpt>
      <trkpt lat="48.53304" lon="1.96739">
        <ele>147</ele>
        <time>2020-05-23T13:41:35Z</time>
      </trkpt>
      <trkpt lat="48.53289" lon="1.96766">
        <ele>147</ele>
        <time>2020-05-23T13:42:06Z</time>
      </trkpt>
      <trkpt lat="48.53328" lon="1.9682">
        <ele>156</ele>
        <time>2020-05-23T13:43:16Z</time>
      </trkpt>
      <trkpt lat="48.53347" lon="1.96861">
        <ele>157</ele>
        <time>2020-05-23T13:44:00Z</time>
      </trkpt>
      <trkpt lat="48.5335" lon="1.96883">
        <ele>157</ele>
        <time>2020-05-23T13:44:20Z</time>
      </trkpt>
      <trkpt lat="48.53347" lon="1.969">
        <ele>157</ele>
        <time>2020-05-23T13:44:36Z</time>
      </trkpt>
      <trkpt lat="48.5334" lon="1.96913">
        <ele>156</ele>
        <time>2020-05-23T13:44:51Z</time>
      </trkpt>
      <trkpt lat="48.53362" lon="1.96922">
        <ele>157</ele>
        <time>2020-05-23T13:45:21Z</time>
      </trkpt>
      <trkpt lat="48.5334" lon="1.96913">
        <ele>156</ele>
        <time>2020-05-23T13:45:52Z</time>
      </trkpt>
      <trkpt lat="48.53319" lon="1.9691">
        <ele>155</ele>
        <time>2020-05-23T13:46:20Z</time>
      </trkpt>
      <trkpt lat="48.53282" lon="1.96901">
        <ele>152</ele>
        <time>2020-05-23T13:47:10Z</time>
      </trkpt>
      <trkpt lat="48.5327" lon="1.96902">
        <ele>151</ele>
        <time>2020-05-23T13:47:26Z</time>
      </trkpt>
      <trkpt lat="48.53226" lon="1.96924">
        <ele>148</ele>
        <time>2020-05-23T13:48:28Z</time>
      </trkpt>
      <trkpt lat="48.53206" lon="1.96932">
        <ele>147</ele>
        <time>2020-05-23T13:48:55Z</time>
      </trkpt>
      <trkpt lat="48.53199" lon="1.96933">
        <ele>146</ele>
        <time>2020-05-23T13:49:05Z</time>
      </trkpt>
      <trkpt lat="48.5319" lon="1.96932">
        <ele>145</ele>
        <time>2020-05-23T13:49:17Z</time>
      </trkpt>
      <trkpt lat="48.53179" lon="1.96928">
        <ele>144</ele>
        <time>2020-05-23T13:49:32Z</time>
      </trkpt>
      <trkpt lat="48.5315" lon="1.969">
        <ele>139</ele>
        <time>2020-05-23T13:50:18Z</time>
      </trkpt>
      <trkpt lat="48.53108" lon="1.96871">
        <ele>131</ele>
        <time>2020-05-23T13:51:19Z</time>
      </trkpt>
      <trkpt lat="48.53087" lon="1.96855">
        <ele>126</ele>
        <time>2020-05-23T13:51:51Z</time>
      </trkpt>
      <trkpt lat="48.53078" lon="1.96847">
        <ele>124</ele>
        <time>2020-05-23T13:52:05Z</time>
      </trkpt>
      <trkpt lat="48.53074" lon="1.96852">
        <ele>124</ele>
        <time>2020-05-23T13:52:12Z</time>
      </trkpt>
    </trkseg>
  </trk>
  <trk>
    <name><![CDATA[11338235-Les souces de l'Orge]]></name>
    <trkseg>
      <trkpt lat="48.53086" lon="1.96256">
        <ele>109</ele>
        <time>2020-05-23T09:01:37Z</time>
      </trkpt>
      <trkpt lat="48.53052" lon="1.96245">
        <ele>109</ele>
        <time>2020-05-23T09:02:23Z</time>
      </trkpt>
      <trkpt lat="48.52931" lon="1.96199">
        <ele>109</ele>
        <time>2020-05-23T09:05:10Z</time>
      </trkpt>
      <trkpt lat="48.5292" lon="1.96195">
        <ele>109</ele>
        <time>2020-05-23T09:05:25Z</time>
      </trkpt>
      <trkpt lat="48.5291" lon="1.96194">
        <ele>109</ele>
        <time>2020-05-23T09:05:38Z</time>
      </trkpt>
      <trkpt lat="48.52899" lon="1.96197">
        <ele>110</ele>
        <time>2020-05-23T09:05:53Z</time>
      </trkpt>
      <trkpt lat="48.52894" lon="1.962">
        <ele>110</ele>
        <time>2020-05-23T09:06:00Z</time>
      </trkpt>
      <trkpt lat="48.52884" lon="1.96187">
        <ele>111</ele>
        <time>2020-05-23T09:06:18Z</time>
      </trkpt>
      <trkpt lat="48.52878" lon="1.96185">
        <ele>111</ele>
        <time>2020-05-23T09:06:26Z</time>
      </trkpt>
      <trkpt lat="48.528" lon="1.96171">
        <ele>117</ele>
        <time>2020-05-23T09:08:11Z</time>
      </trkpt>
      <trkpt lat="48.52719" lon="1.96169">
        <ele>123</ele>
        <time>2020-05-23T09:09:59Z</time>
      </trkpt>
      <trkpt lat="48.52695" lon="1.96167">
        <ele>124</ele>
        <time>2020-05-23T09:10:31Z</time>
      </trkpt>
      <trkpt lat="48.52683" lon="1.96147">
        <ele>124</ele>
        <time>2020-05-23T09:10:55Z</time>
      </trkpt>
      <trkpt lat="48.52634" lon="1.9606">
        <ele>123</ele>
        <time>2020-05-23T09:12:36Z</time>
      </trkpt>
      <trkpt lat="48.52613" lon="1.96019">
        <ele>123</ele>
        <time>2020-05-23T09:13:22Z</time>
      </trkpt>
      <trkpt lat="48.52586" lon="1.9596">
        <ele>121</ele>
        <time>2020-05-23T09:14:25Z</time>
      </trkpt>
      <trkpt lat="48.5255" lon="1.95857">
        <ele>118</ele>
        <time>2020-05-23T09:16:08Z</time>
      </trkpt>
      <trkpt lat="48.52536" lon="1.95833">
        <ele>118</ele>
        <time>2020-05-23T09:16:36Z</time>
      </trkpt>
      <trkpt lat="48.52496" lon="1.95743">
        <ele>118</ele>
        <time>2020-05-23T09:18:12Z</time>
      </trkpt>
      <trkpt lat="48.52479" lon="1.95725">
        <ele>117</ele>
        <time>2020-05-23T09:18:40Z</time>
      </trkpt>
      <trkpt lat="48.52438" lon="1.95716">
        <ele>118</ele>
        <time>2020-05-23T09:19:35Z</time>
      </trkpt>
      <trkpt lat="48.52379" lon="1.9572">
        <ele>119</ele>
        <time>2020-05-23T09:20:54Z</time>
      </trkpt>
      <trkpt lat="48.52354" lon="1.95731">
        <ele>120</ele>
        <time>2020-05-23T09:21:29Z</time>
      </trkpt>
      <trkpt lat="48.52343" lon="1.9573">
        <ele>120</ele>
        <time>2020-05-23T09:21:44Z</time>
      </trkpt>
      <trkpt lat="48.5227" lon="1.9567">
        <ele>129</ele>
        <time>2020-05-23T09:23:34Z</time>
      </trkpt>
      <trkpt lat="48.52256" lon="1.9565">
        <ele>130</ele>
        <time>2020-05-23T09:24:00Z</time>
      </trkpt>
      <trkpt lat="48.52246" lon="1.95605">
        <ele>128</ele>
        <time>2020-05-23T09:24:42Z</time>
      </trkpt>
      <trkpt lat="48.52243" lon="1.95477">
        <ele>119</ele>
        <time>2020-05-23T09:26:35Z</time>
      </trkpt>
      <trkpt lat="48.52239" lon="1.95463">
        <ele>119</ele>
        <time>2020-05-23T09:26:49Z</time>
      </trkpt>
      <trkpt lat="48.52234" lon="1.95454">
        <ele>119</ele>
        <time>2020-05-23T09:26:59Z</time>
      </trkpt>
      <trkpt lat="48.52228" lon="1.95451">
        <ele>118</ele>
        <time>2020-05-23T09:27:08Z</time>
      </trkpt>
      <trkpt lat="48.52172" lon="1.9548">
        <ele>118</ele>
        <time>2020-05-23T09:28:27Z</time>
      </trkpt>
      <trkpt lat="48.52142" lon="1.95502">
        <ele>120</ele>
        <time>2020-05-23T09:29:11Z</time>
      </trkpt>
      <trkpt lat="48.52131" lon="1.95506">
        <ele>121</ele>
        <time>2020-05-23T09:29:26Z</time>
      </trkpt>
      <trkpt lat="48.52104" lon="1.95498">
        <ele>120</ele>
        <time>2020-05-23T09:30:03Z</time>
      </trkpt>
      <trkpt lat="48.52074" lon="1.95486">
        <ele>121</ele>
        <time>2020-05-23T09:30:44Z</time>
      </trkpt>
      <trkpt lat="48.52034" lon="1.95402">
        <ele>119</ele>
        <time>2020-05-23T09:32:16Z</time>
      </trkpt>
      <trkpt lat="48.51993" lon="1.95337">
        <ele>120</ele>
        <time>2020-05-23T09:33:35Z</time>
      </trkpt>
      <trkpt lat="48.5193" lon="1.95284">
        <ele>125</ele>
        <time>2020-05-23T09:35:11Z</time>
      </trkpt>
      <trkpt lat="48.51889" lon="1.95236">
        <ele>124</ele>
        <time>2020-05-23T09:36:21Z</time>
      </trkpt>
      <trkpt lat="48.51859" lon="1.95215">
        <ele>123</ele>
        <time>2020-05-23T09:37:05Z</time>
      </trkpt>
      <trkpt lat="48.51831" lon="1.95205">
        <ele>123</ele>
        <time>2020-05-23T09:37:43Z</time>
      </trkpt>
      <trkpt lat="48.51816" lon="1.95188">
        <ele>124</ele>
        <time>2020-05-23T09:38:08Z</time>
      </trkpt>
      <trkpt lat="48.51806" lon="1.95166">
        <ele>124</ele>
        <time>2020-05-23T09:38:32Z</time>
      </trkpt>
      <trkpt lat="48.51787" lon="1.95135">
        <ele>127</ele>
        <time>2020-05-23T09:39:09Z</time>
      </trkpt>
      <trkpt lat="48.51773" lon="1.95121">
        <ele>129</ele>
        <time>2020-05-23T09:39:31Z</time>
      </trkpt>
      <trkpt lat="48.51762" lon="1.95102">
        <ele>131</ele>
        <time>2020-05-23T09:39:54Z</time>
      </trkpt>
      <trkpt lat="48.51776" lon="1.95072">
        <ele>129</ele>
        <time>2020-05-23T09:40:26Z</time>
      </trkpt>
      <trkpt lat="48.518" lon="1.95031">
        <ele>127</ele>
        <time>2020-05-23T09:41:15Z</time>
      </trkpt>
      <trkpt lat="48.51823" lon="1.94986">
        <ele>125</ele>
        <time>2020-05-23T09:42:05Z</time>
      </trkpt>
      <trkpt lat="48.51825" lon="1.94915">
        <ele>125</ele>
        <time>2020-05-23T09:43:08Z</time>
      </trkpt>
      <trkpt lat="48.51819" lon="1.94879">
        <ele>125</ele>
        <time>2020-05-23T09:43:40Z</time>
      </trkpt>
      <trkpt lat="48.5181" lon="1.94839">
        <ele>124</ele>
        <time>2020-05-23T09:44:18Z</time>
      </trkpt>
      <trkpt lat="48.51804" lon="1.94832">
        <ele>125</ele>
        <time>2020-05-23T09:44:28Z</time>
      </trkpt>
      <trkpt lat="48.51782" lon="1.94835">
        <ele>127</ele>
        <time>2020-05-23T09:44:57Z</time>
      </trkpt>
      <trkpt lat="48.51739" lon="1.94856">
        <ele>133</ele>
        <time>2020-05-23T09:45:58Z</time>
      </trkpt>
      <trkpt lat="48.51724" lon="1.94854">
        <ele>134</ele>
        <time>2020-05-23T09:46:18Z</time>
      </trkpt>
      <trkpt lat="48.51705" lon="1.94847">
        <ele>134</ele>
        <time>2020-05-23T09:46:44Z</time>
      </trkpt>
      <trkpt lat="48.51674" lon="1.94827">
        <ele>133</ele>
        <time>2020-05-23T09:47:29Z</time>
      </trkpt>
      <trkpt lat="48.51651" lon="1.94801">
        <ele>130</ele>
        <time>2020-05-23T09:48:07Z</time>
      </trkpt>
      <trkpt lat="48.51637" lon="1.94775">
        <ele>127</ele>
        <time>2020-05-23T09:48:37Z</time>
      </trkpt>
      <trkpt lat="48.51627" lon="1.94727">
        <ele>122</ele>
        <time>2020-05-23T09:49:21Z</time>
      </trkpt>
      <trkpt lat="48.51612" lon="1.9471">
        <ele>121</ele>
        <time>2020-05-23T09:49:46Z</time>
      </trkpt>
      <trkpt lat="48.51586" lon="1.94708">
        <ele>122</ele>
        <time>2020-05-23T09:50:21Z</time>
      </trkpt>
      <trkpt lat="48.51564" lon="1.94728">
        <ele>124</ele>
        <time>2020-05-23T09:50:55Z</time>
      </trkpt>
      <trkpt lat="48.51537" lon="1.94766">
        <ele>126</ele>
        <time>2020-05-23T09:51:45Z</time>
      </trkpt>
      <trkpt lat="48.51434" lon="1.9482">
        <ele>127</ele>
        <time>2020-05-23T09:54:10Z</time>
      </trkpt>
      <trkpt lat="48.51361" lon="1.94877">
        <ele>133</ele>
        <time>2020-05-23T09:56:00Z</time>
      </trkpt>
      <trkpt lat="48.51354" lon="1.94879">
        <ele>134</ele>
        <time>2020-05-23T09:56:09Z</time>
      </trkpt>
      <trkpt lat="48.51347" lon="1.94869">
        <ele>133</ele>
        <time>2020-05-23T09:56:22Z</time>
      </trkpt>
      <trkpt lat="48.51327" lon="1.94804">
        <ele>129</ele>
        <time>2020-05-23T09:57:26Z</time>
      </trkpt>
      <trkpt lat="48.51317" lon="1.94785">
        <ele>130</ele>
        <time>2020-05-23T09:57:47Z</time>
      </trkpt>
      <trkpt lat="48.51285" lon="1.94751">
        <ele>134</ele>
        <time>2020-05-23T09:58:39Z</time>
      </trkpt>
      <trkpt lat="48.51278" lon="1.94736">
        <ele>134</ele>
        <time>2020-05-23T09:58:55Z</time>
      </trkpt>
      <trkpt lat="48.51276" lon="1.94672">
        <ele>134</ele>
        <time>2020-05-23T09:59:52Z</time>
      </trkpt>
      <trkpt lat="48.51284" lon="1.94598">
        <ele>132</ele>
        <time>2020-05-23T10:00:58Z</time>
      </trkpt>
      <trkpt lat="48.51293" lon="1.94575">
        <ele>130</ele>
        <time>2020-05-23T10:01:22Z</time>
      </trkpt>
      <trkpt lat="48.51323" lon="1.94515">
        <ele>123</ele>
        <time>2020-05-23T10:02:28Z</time>
      </trkpt>
      <trkpt lat="48.51335" lon="1.94537">
        <ele>121</ele>
        <time>2020-05-23T10:02:54Z</time>
      </trkpt>
      <trkpt lat="48.51349" lon="1.94554">
        <ele>121</ele>
        <time>2020-05-23T10:03:18Z</time>
      </trkpt>
      <trkpt lat="48.51361" lon="1.94556">
        <ele>121</ele>
        <time>2020-05-23T10:03:34Z</time>
      </trkpt>
      <trkpt lat="48.51356" lon="1.94545">
        <ele>121</ele>
        <time>2020-05-23T10:03:45Z</time>
      </trkpt>
      <trkpt lat="48.51341" lon="1.9446">
        <ele>120</ele>
        <time>2020-05-23T10:05:03Z</time>
      </trkpt>
      <trkpt lat="48.51335" lon="1.94415">
        <ele>120</ele>
        <time>2020-05-23T10:05:44Z</time>
      </trkpt>
      <trkpt lat="48.51357" lon="1.94358">
        <ele>121</ele>
        <time>2020-05-23T10:06:42Z</time>
      </trkpt>
      <trkpt lat="48.51374" lon="1.9431">
        <ele>121</ele>
        <time>2020-05-23T10:07:30Z</time>
      </trkpt>
      <trkpt lat="48.51382" lon="1.94253">
        <ele>122</ele>
        <time>2020-05-23T10:08:22Z</time>
      </trkpt>
      <trkpt lat="48.51381" lon="1.94237">
        <ele>122</ele>
        <time>2020-05-23T10:08:36Z</time>
      </trkpt>
      <trkpt lat="48.51377" lon="1.94225">
        <ele>123</ele>
        <time>2020-05-23T10:08:48Z</time>
      </trkpt>
      <trkpt lat="48.51365" lon="1.94197">
        <ele>124</ele>
        <time>2020-05-23T10:09:17Z</time>
      </trkpt>
      <trkpt lat="48.51316" lon="1.94101">
        <ele>131</ele>
        <time>2020-05-23T10:11:04Z</time>
      </trkpt>
      <trkpt lat="48.51284" lon="1.94026">
        <ele>133</ele>
        <time>2020-05-23T10:12:23Z</time>
      </trkpt>
      <trkpt lat="48.51264" lon="1.93964">
        <ele>134</ele>
        <time>2020-05-23T10:13:24Z</time>
      </trkpt>
      <trkpt lat="48.51248" lon="1.93889">
        <ele>132</ele>
        <time>2020-05-23T10:14:34Z</time>
      </trkpt>
      <trkpt lat="48.51235" lon="1.9384">
        <ele>130</ele>
        <time>2020-05-23T10:15:21Z</time>
      </trkpt>
      <trkpt lat="48.51216" lon="1.93812">
        <ele>131</ele>
        <time>2020-05-23T10:15:56Z</time>
      </trkpt>
      <trkpt lat="48.51203" lon="1.93785">
        <ele>131</ele>
        <time>2020-05-23T10:16:26Z</time>
      </trkpt>
      <trkpt lat="48.51187" lon="1.93742">
        <ele>132</ele>
        <time>2020-05-23T10:17:09Z</time>
      </trkpt>
      <trkpt lat="48.51145" lon="1.93571">
        <ele>131</ele>
        <time>2020-05-23T10:19:50Z</time>
      </trkpt>
      <trkpt lat="48.51128" lon="1.93497">
        <ele>130</ele>
        <time>2020-05-23T10:21:00Z</time>
      </trkpt>
      <trkpt lat="48.51084" lon="1.9332">
        <ele>132</ele>
        <time>2020-05-23T10:23:47Z</time>
      </trkpt>
      <trkpt lat="48.51079" lon="1.93284">
        <ele>132</ele>
        <time>2020-05-23T10:24:19Z</time>
      </trkpt>
      <trkpt lat="48.5108" lon="1.93256">
        <ele>131</ele>
        <time>2020-05-23T10:24:44Z</time>
      </trkpt>
      <trkpt lat="48.51079" lon="1.9324">
        <ele>131</ele>
        <time>2020-05-23T10:24:58Z</time>
      </trkpt>
      <trkpt lat="48.51061" lon="1.93193">
        <ele>132</ele>
        <time>2020-05-23T10:25:46Z</time>
      </trkpt>
      <trkpt lat="48.51049" lon="1.93176">
        <ele>132</ele>
        <time>2020-05-23T10:26:08Z</time>
      </trkpt>
      <trkpt lat="48.51016" lon="1.93142">
        <ele>133</ele>
        <time>2020-05-23T10:27:02Z</time>
      </trkpt>
      <trkpt lat="48.50978" lon="1.93119">
        <ele>130</ele>
        <time>2020-05-23T10:27:56Z</time>
      </trkpt>
      <trkpt lat="48.50972" lon="1.93113">
        <ele>129</ele>
        <time>2020-05-23T10:28:06Z</time>
      </trkpt>
      <trkpt lat="48.50962" lon="1.93088">
        <ele>127</ele>
        <time>2020-05-23T10:28:32Z</time>
      </trkpt>
      <trkpt lat="48.50959" lon="1.93077">
        <ele>127</ele>
        <time>2020-05-23T10:28:42Z</time>
      </trkpt>
      <trkpt lat="48.50955" lon="1.93064">
        <ele>127</ele>
        <time>2020-05-23T10:28:55Z</time>
      </trkpt>
      <trkpt lat="48.50952" lon="1.93055">
        <ele>127</ele>
        <time>2020-05-23T10:29:04Z</time>
      </trkpt>
      <trkpt lat="48.50928" lon="1.93018">
        <ele>126</ele>
        <time>2020-05-23T10:29:49Z</time>
      </trkpt>
      <trkpt lat="48.50922" lon="1.9301">
        <ele>126</ele>
        <time>2020-05-23T10:30:00Z</time>
      </trkpt>
      <trkpt lat="48.50923" lon="1.92981">
        <ele>126</ele>
        <time>2020-05-23T10:30:26Z</time>
      </trkpt>
      <trkpt lat="48.50956" lon="1.92908">
        <ele>128</ele>
        <time>2020-05-23T10:31:44Z</time>
      </trkpt>
      <trkpt lat="48.50978" lon="1.92902">
        <ele>129</ele>
        <time>2020-05-23T10:32:14Z</time>
      </trkpt>
      <trkpt lat="48.50989" lon="1.92854">
        <ele>128</ele>
        <time>2020-05-23T10:32:59Z</time>
      </trkpt>
      <trkpt lat="48.51017" lon="1.92857">
        <ele>129</ele>
        <time>2020-05-23T10:33:36Z</time>
      </trkpt>
      <trkpt lat="48.51007" lon="1.92815">
        <ele>128</ele>
        <time>2020-05-23T10:34:16Z</time>
      </trkpt>
      <trkpt lat="48.50992" lon="1.92763">
        <ele>127</ele>
        <time>2020-05-23T10:35:06Z</time>
      </trkpt>
      <trkpt lat="48.50962" lon="1.9259">
        <ele>130</ele>
        <time>2020-05-23T10:37:44Z</time>
      </trkpt>
      <trkpt lat="48.5096" lon="1.92573">
        <ele>130</ele>
        <time>2020-05-23T10:37:59Z</time>
      </trkpt>
      <trkpt lat="48.50962" lon="1.92546">
        <ele>131</ele>
        <time>2020-05-23T10:38:23Z</time>
      </trkpt>
      <trkpt lat="48.50974" lon="1.92497">
        <ele>133</ele>
        <time>2020-05-23T10:39:09Z</time>
      </trkpt>
      <trkpt lat="48.50972" lon="1.92481">
        <ele>133</ele>
        <time>2020-05-23T10:39:24Z</time>
      </trkpt>
      <trkpt lat="48.50966" lon="1.92461">
        <ele>133</ele>
        <time>2020-05-23T10:39:43Z</time>
      </trkpt>
      <trkpt lat="48.50957" lon="1.92447">
        <ele>132</ele>
        <time>2020-05-23T10:40:00Z</time>
      </trkpt>
      <trkpt lat="48.50947" lon="1.92356">
        <ele>134</ele>
        <time>2020-05-23T10:41:22Z</time>
      </trkpt>
      <trkpt lat="48.50928" lon="1.92165">
        <ele>135</ele>
        <time>2020-05-23T10:44:13Z</time>
      </trkpt>
      <trkpt lat="48.50918" lon="1.92095">
        <ele>137</ele>
        <time>2020-05-23T10:45:16Z</time>
      </trkpt>
      <trkpt lat="48.50901" lon="1.92041">
        <ele>138</ele>
        <time>2020-05-23T10:46:09Z</time>
      </trkpt>
      <trkpt lat="48.50895" lon="1.92009">
        <ele>137</ele>
        <time>2020-05-23T10:46:38Z</time>
      </trkpt>
      <trkpt lat="48.50876" lon="1.91938">
        <ele>135</ele>
        <time>2020-05-23T10:47:46Z</time>
      </trkpt>
      <trkpt lat="48.50877" lon="1.91918">
        <ele>135</ele>
        <time>2020-05-23T10:48:04Z</time>
      </trkpt>
      <trkpt lat="48.50883" lon="1.91901">
        <ele>135</ele>
        <time>2020-05-23T10:48:21Z</time>
      </trkpt>
      <trkpt lat="48.50908" lon="1.91861">
        <ele>135</ele>
        <time>2020-05-23T10:49:09Z</time>
      </trkpt>
      <trkpt lat="48.50916" lon="1.91861">
        <ele>136</ele>
        <time>2020-05-23T10:49:20Z</time>
      </trkpt>
      <trkpt lat="48.5093" lon="1.91856">
        <ele>137</ele>
        <time>2020-05-23T10:49:39Z</time>
      </trkpt>
      <trkpt lat="48.5097" lon="1.9182">
        <ele>139</ele>
        <time>2020-05-23T10:50:41Z</time>
      </trkpt>
      <trkpt lat="48.50998" lon="1.91799">
        <ele>140</ele>
        <time>2020-05-23T10:51:23Z</time>
      </trkpt>
      <trkpt lat="48.51019" lon="1.91789">
        <ele>142</ele>
        <time>2020-05-23T10:51:52Z</time>
      </trkpt>
      <trkpt lat="48.51047" lon="1.91785">
        <ele>145</ele>
        <time>2020-05-23T10:52:30Z</time>
      </trkpt>
      <trkpt lat="48.51074" lon="1.91776">
        <ele>148</ele>
        <time>2020-05-23T10:53:07Z</time>
      </trkpt>
      <trkpt lat="48.51128" lon="1.91751">
        <ele>151</ele>
        <time>2020-05-23T10:54:22Z</time>
      </trkpt>
      <trkpt lat="48.51159" lon="1.91743">
        <ele>152</ele>
        <time>2020-05-23T10:55:04Z</time>
      </trkpt>
      <trkpt lat="48.51181" lon="1.91746">
        <ele>154</ele>
        <time>2020-05-23T10:55:34Z</time>
      </trkpt>
      <trkpt lat="48.51203" lon="1.9176">
        <ele>155</ele>
        <time>2020-05-23T10:56:06Z</time>
      </trkpt>
      <trkpt lat="48.51278" lon="1.9183">
        <ele>158</ele>
        <time>2020-05-23T10:58:03Z</time>
      </trkpt>
      <trkpt lat="48.51364" lon="1.91896">
        <ele>159</ele>
        <time>2020-05-23T11:00:12Z</time>
      </trkpt>
      <trkpt lat="48.5137" lon="1.91896">
        <ele>159</ele>
        <time>2020-05-23T11:00:20Z</time>
      </trkpt>
      <trkpt lat="48.51437" lon="1.91852">
        <ele>159</ele>
        <time>2020-05-23T11:01:57Z</time>
      </trkpt>
      <trkpt lat="48.51447" lon="1.91818">
        <ele>159</ele>
        <time>2020-05-23T11:02:30Z</time>
      </trkpt>
      <trkpt lat="48.51495" lon="1.91843">
        <ele>159</ele>
        <time>2020-05-23T11:03:38Z</time>
      </trkpt>
      <trkpt lat="48.51539" lon="1.91859">
        <ele>159</ele>
        <time>2020-05-23T11:04:39Z</time>
      </trkpt>
      <trkpt lat="48.51556" lon="1.91861">
        <ele>158</ele>
        <time>2020-05-23T11:05:01Z</time>
      </trkpt>
      <trkpt lat="48.51624" lon="1.91858">
        <ele>158</ele>
        <time>2020-05-23T11:06:32Z</time>
      </trkpt>
      <trkpt lat="48.51634" lon="1.9186">
        <ele>158</ele>
        <time>2020-05-23T11:06:46Z</time>
      </trkpt>
      <trkpt lat="48.51979" lon="1.91814">
        <ele>158</ele>
        <time>2020-05-23T11:14:28Z</time>
      </trkpt>
      <trkpt lat="48.5206" lon="1.91787">
        <ele>158</ele>
        <time>2020-05-23T11:16:18Z</time>
      </trkpt>
      <trkpt lat="48.52171" lon="1.91736">
        <ele>160</ele>
        <time>2020-05-23T11:18:53Z</time>
      </trkpt>
      <trkpt lat="48.52267" lon="1.91737">
        <ele>159</ele>
        <time>2020-05-23T11:21:01Z</time>
      </trkpt>
      <trkpt lat="48.52385" lon="1.91797">
        <ele>157</ele>
        <time>2020-05-23T11:23:47Z</time>
      </trkpt>
      <trkpt lat="48.5247" lon="1.9181">
        <ele>156</ele>
        <time>2020-05-23T11:25:41Z</time>
      </trkpt>
      <trkpt lat="48.52579" lon="1.91737">
        <ele>159</ele>
        <time>2020-05-23T11:28:21Z</time>
      </trkpt>
      <trkpt lat="48.52637" lon="1.91714">
        <ele>159</ele>
        <time>2020-05-23T11:29:41Z</time>
      </trkpt>
      <trkpt lat="48.52712" lon="1.91809">
        <ele>158</ele>
        <time>2020-05-23T11:31:51Z</time>
      </trkpt>
      <trkpt lat="48.53133" lon="1.92095">
        <ele>152</ele>
        <time>2020-05-23T11:42:07Z</time>
      </trkpt>
      <trkpt lat="48.53155" lon="1.92097">
        <ele>153</ele>
        <time>2020-05-23T11:42:37Z</time>
      </trkpt>
      <trkpt lat="48.53171" lon="1.92118">
        <ele>155</ele>
        <time>2020-05-23T11:43:05Z</time>
      </trkpt>
      <trkpt lat="48.53188" lon="1.9214">
        <ele>157</ele>
        <time>2020-05-23T11:43:35Z</time>
      </trkpt>
      <trkpt lat="48.53209" lon="1.92166">
        <ele>159</ele>
        <time>2020-05-23T11:44:11Z</time>
      </trkpt>
      <trkpt lat="48.53222" lon="1.92198">
        <ele>160</ele>
        <time>2020-05-23T11:44:44Z</time>
      </trkpt>
      <trkpt lat="48.53287" lon="1.92254">
        <ele>163</ele>
        <time>2020-05-23T11:46:24Z</time>
      </trkpt>
      <trkpt lat="48.53374" lon="1.92307">
        <ele>164</ele>
        <time>2020-05-23T11:48:29Z</time>
      </trkpt>
      <trkpt lat="48.5341" lon="1.92345">
        <ele>164</ele>
        <time>2020-05-23T11:49:28Z</time>
      </trkpt>
      <trkpt lat="48.53444" lon="1.92396">
        <ele>164</ele>
        <time>2020-05-23T11:50:32Z</time>
      </trkpt>
      <trkpt lat="48.53475" lon="1.92436">
        <ele>164</ele>
        <time>2020-05-23T11:51:26Z</time>
      </trkpt>
      <trkpt lat="48.53507" lon="1.9252">
        <ele>165</ele>
        <time>2020-05-23T11:52:52Z</time>
      </trkpt>
      <trkpt lat="48.53527" lon="1.92553">
        <ele>165</ele>
        <time>2020-05-23T11:53:32Z</time>
      </trkpt>
      <trkpt lat="48.53578" lon="1.92617">
        <ele>165</ele>
        <time>2020-05-23T11:55:00Z</time>
      </trkpt>
      <trkpt lat="48.53597" lon="1.92649">
        <ele>165</ele>
        <time>2020-05-23T11:55:38Z</time>
      </trkpt>
      <trkpt lat="48.53627" lon="1.92669">
        <ele>164</ele>
        <time>2020-05-23T11:56:22Z</time>
      </trkpt>
      <trkpt lat="48.53702" lon="1.92706">
        <ele>160</ele>
        <time>2020-05-23T11:58:07Z</time>
      </trkpt>
      <trkpt lat="48.53735" lon="1.92723">
        <ele>158</ele>
        <time>2020-05-23T11:58:54Z</time>
      </trkpt>
      <trkpt lat="48.53749" lon="1.92732">
        <ele>157</ele>
        <time>2020-05-23T11:59:14Z</time>
      </trkpt>
      <trkpt lat="48.53855" lon="1.92785">
        <ele>147</ele>
        <time>2020-05-23T12:01:43Z</time>
      </trkpt>
      <trkpt lat="48.53869" lon="1.9279">
        <ele>148</ele>
        <time>2020-05-23T12:02:02Z</time>
      </trkpt>
      <trkpt lat="48.53885" lon="1.92816">
        <ele>149</ele>
        <time>2020-05-23T12:02:33Z</time>
      </trkpt>
      <trkpt lat="48.53902" lon="1.92838">
        <ele>150</ele>
        <time>2020-05-23T12:03:03Z</time>
      </trkpt>
      <trkpt lat="48.53921" lon="1.92883">
        <ele>154</ele>
        <time>2020-05-23T12:03:50Z</time>
      </trkpt>
      <trkpt lat="48.53979" lon="1.92957">
        <ele>160</ele>
        <time>2020-05-23T12:05:32Z</time>
      </trkpt>
      <trkpt lat="48.54002" lon="1.92985">
        <ele>161</ele>
        <time>2020-05-23T12:06:11Z</time>
      </trkpt>
      <trkpt lat="48.5403" lon="1.93019">
        <ele>162</ele>
        <time>2020-05-23T12:06:59Z</time>
      </trkpt>
      <trkpt lat="48.54065" lon="1.93094">
        <ele>158</ele>
        <time>2020-05-23T12:08:20Z</time>
      </trkpt>
      <trkpt lat="48.54072" lon="1.93114">
        <ele>157</ele>
        <time>2020-05-23T12:08:40Z</time>
      </trkpt>
      <trkpt lat="48.5408" lon="1.93148">
        <ele>154</ele>
        <time>2020-05-23T12:09:12Z</time>
      </trkpt>
      <trkpt lat="48.54149" lon="1.93288">
        <ele>147</ele>
        <time>2020-05-23T12:11:46Z</time>
      </trkpt>
      <trkpt lat="48.54179" lon="1.93344">
        <ele>144</ele>
        <time>2020-05-23T12:12:50Z</time>
      </trkpt>
      <trkpt lat="48.54234" lon="1.93432">
        <ele>140</ele>
        <time>2020-05-23T12:14:37Z</time>
      </trkpt>
      <trkpt lat="48.54255" lon="1.93472">
        <ele>139</ele>
        <time>2020-05-23T12:15:22Z</time>
      </trkpt>
      <trkpt lat="48.54266" lon="1.935">
        <ele>138</ele>
        <time>2020-05-23T12:15:51Z</time>
      </trkpt>
      <trkpt lat="48.54291" lon="1.93598">
        <ele>134</ele>
        <time>2020-05-23T12:17:23Z</time>
      </trkpt>
      <trkpt lat="48.54298" lon="1.93618">
        <ele>134</ele>
        <time>2020-05-23T12:17:43Z</time>
      </trkpt>
      <trkpt lat="48.54365" lon="1.9376">
        <ele>132</ele>
        <time>2020-05-23T12:20:18Z</time>
      </trkpt>
      <trkpt lat="48.54358" lon="1.93766">
        <ele>132</ele>
        <time>2020-05-23T12:20:28Z</time>
      </trkpt>
      <trkpt lat="48.54365" lon="1.9376">
        <ele>132</ele>
        <time>2020-05-23T12:20:39Z</time>
      </trkpt>
      <trkpt lat="48.54391" lon="1.93863">
        <ele>135</ele>
        <time>2020-05-23T12:22:16Z</time>
      </trkpt>
      <trkpt lat="48.54452" lon="1.9394">
        <ele>146</ele>
        <time>2020-05-23T12:24:02Z</time>
      </trkpt>
      <trkpt lat="48.54506" lon="1.93932">
        <ele>147</ele>
        <time>2020-05-23T12:25:15Z</time>
      </trkpt>
      <trkpt lat="48.54525" lon="1.93954">
        <ele>152</ele>
        <time>2020-05-23T12:25:47Z</time>
      </trkpt>
      <trkpt lat="48.54571" lon="1.94031">
        <ele>161</ele>
        <time>2020-05-23T12:27:18Z</time>
      </trkpt>
      <trkpt lat="48.54598" lon="1.94062">
        <ele>164</ele>
        <time>2020-05-23T12:28:04Z</time>
      </trkpt>
      <trkpt lat="48.54564" lon="1.94086">
        <ele>165</ele>
        <time>2020-05-23T12:28:54Z</time>
      </trkpt>
      <trkpt lat="48.54529" lon="1.94104">
        <ele>166</ele>
        <time>2020-05-23T12:29:43Z</time>
      </trkpt>
      <trkpt lat="48.54447" lon="1.94204">
        <ele>168</ele>
        <time>2020-05-23T12:32:04Z</time>
      </trkpt>
      <trkpt lat="48.54432" lon="1.94213">
        <ele>169</ele>
        <time>2020-05-23T12:32:25Z</time>
      </trkpt>
      <trkpt lat="48.54415" lon="1.94233">
        <ele>169</ele>
        <time>2020-05-23T12:32:54Z</time>
      </trkpt>
      <trkpt lat="48.54408" lon="1.94271">
        <ele>170</ele>
        <time>2020-05-23T12:33:29Z</time>
      </trkpt>
      <trkpt lat="48.54397" lon="1.94305">
        <ele>169</ele>
        <time>2020-05-23T12:34:02Z</time>
      </trkpt>
      <trkpt lat="48.54401" lon="1.94349">
        <ele>170</ele>
        <time>2020-05-23T12:34:42Z</time>
      </trkpt>
      <trkpt lat="48.54416" lon="1.94402">
        <ele>169</ele>
        <time>2020-05-23T12:35:33Z</time>
      </trkpt>
      <trkpt lat="48.54441" lon="1.94464">
        <ele>169</ele>
        <time>2020-05-23T12:36:37Z</time>
      </trkpt>
      <trkpt lat="48.5446" lon="1.94522">
        <ele>168</ele>
        <time>2020-05-23T12:37:34Z</time>
      </trkpt>
      <trkpt lat="48.54536" lon="1.94708">
        <ele>168</ele>
        <time>2020-05-23T12:40:47Z</time>
      </trkpt>
      <trkpt lat="48.54608" lon="1.94822">
        <ele>171</ele>
        <time>2020-05-23T12:43:06Z</time>
      </trkpt>
      <trkpt lat="48.54646" lon="1.94894">
        <ele>171</ele>
        <time>2020-05-23T12:44:27Z</time>
      </trkpt>
      <trkpt lat="48.54675" lon="1.94939">
        <ele>171</ele>
        <time>2020-05-23T12:45:23Z</time>
      </trkpt>
      <trkpt lat="48.54677" lon="1.94955">
        <ele>170</ele>
        <time>2020-05-23T12:45:37Z</time>
      </trkpt>
      <trkpt lat="48.54668" lon="1.95083">
        <ele>165</ele>
        <time>2020-05-23T12:47:31Z</time>
      </trkpt>
      <trkpt lat="48.54675" lon="1.95132">
        <ele>165</ele>
        <time>2020-05-23T12:48:15Z</time>
      </trkpt>
      <trkpt lat="48.54674" lon="1.9517">
        <ele>164</ele>
        <time>2020-05-23T12:48:49Z</time>
      </trkpt>
      <trkpt lat="48.5467" lon="1.95187">
        <ele>164</ele>
        <time>2020-05-23T12:49:05Z</time>
      </trkpt>
      <trkpt lat="48.54659" lon="1.95204">
        <ele>164</ele>
        <time>2020-05-23T12:49:26Z</time>
      </trkpt>
      <trkpt lat="48.54654" lon="1.95208">
        <ele>165</ele>
        <time>2020-05-23T12:49:33Z</time>
      </trkpt>
      <trkpt lat="48.54648" lon="1.95209">
        <ele>165</ele>
        <time>2020-05-23T12:49:41Z</time>
      </trkpt>
      <trkpt lat="48.54634" lon="1.95204">
        <ele>165</ele>
        <time>2020-05-23T12:50:01Z</time>
      </trkpt>
      <trkpt lat="48.54634" lon="1.95204">
        <ele>165</ele>
        <time>2020-05-23T12:50:01Z</time>
      </trkpt>
      <trkpt lat="48.5451" lon="1.95165">
        <ele>166</ele>
        <time>2020-05-23T12:52:50Z</time>
      </trkpt>
      <trkpt lat="48.5447" lon="1.95157">
        <ele>166</ele>
        <time>2020-05-23T12:53:44Z</time>
      </trkpt>
      <trkpt lat="48.54417" lon="1.95116">
        <ele>165</ele>
        <time>2020-05-23T12:55:03Z</time>
      </trkpt>
      <trkpt lat="48.54341" lon="1.95125">
        <ele>163</ele>
        <time>2020-05-23T12:56:45Z</time>
      </trkpt>
      <trkpt lat="48.54307" lon="1.94947">
        <ele>145</ele>
        <time>2020-05-23T12:59:28Z</time>
      </trkpt>
      <trkpt lat="48.54293" lon="1.94957">
        <ele>144</ele>
        <time>2020-05-23T12:59:49Z</time>
      </trkpt>
      <trkpt lat="48.54269" lon="1.94965">
        <ele>143</ele>
        <time>2020-05-23T13:00:22Z</time>
      </trkpt>
      <trkpt lat="48.54238" lon="1.94959">
        <ele>141</ele>
        <time>2020-05-23T13:01:04Z</time>
      </trkpt>
      <trkpt lat="48.54209" lon="1.9495">
        <ele>141</ele>
        <time>2020-05-23T13:01:43Z</time>
      </trkpt>
      <trkpt lat="48.54192" lon="1.94948">
        <ele>140</ele>
        <time>2020-05-23T13:02:06Z</time>
      </trkpt>
      <trkpt lat="48.54112" lon="1.94935">
        <ele>137</ele>
        <time>2020-05-23T13:03:53Z</time>
      </trkpt>
      <trkpt lat="48.54074" lon="1.94931">
        <ele>135</ele>
        <time>2020-05-23T13:04:44Z</time>
      </trkpt>
      <trkpt lat="48.54069" lon="1.94974">
        <ele>135</ele>
        <time>2020-05-23T13:05:23Z</time>
      </trkpt>
      <trkpt lat="48.54065" lon="1.95028">
        <ele>135</ele>
        <time>2020-05-23T13:06:11Z</time>
      </trkpt>
      <trkpt lat="48.54071" lon="1.95056">
        <ele>136</ele>
        <time>2020-05-23T13:06:37Z</time>
      </trkpt>
      <trkpt lat="48.54073" lon="1.95089">
        <ele>137</ele>
        <time>2020-05-23T13:07:06Z</time>
      </trkpt>
      <trkpt lat="48.54067" lon="1.95113">
        <ele>138</ele>
        <time>2020-05-23T13:07:29Z</time>
      </trkpt>
      <trkpt lat="48.54057" lon="1.95129">
        <ele>137</ele>
        <time>2020-05-23T13:07:48Z</time>
      </trkpt>
      <trkpt lat="48.54016" lon="1.95163">
        <ele>132</ele>
        <time>2020-05-23T13:08:50Z</time>
      </trkpt>
      <trkpt lat="48.54" lon="1.95197">
        <ele>132</ele>
        <time>2020-05-23T13:09:27Z</time>
      </trkpt>
      <trkpt lat="48.54" lon="1.95219">
        <ele>134</ele>
        <time>2020-05-23T13:09:47Z</time>
      </trkpt>
      <trkpt lat="48.53988" lon="1.95252">
        <ele>136</ele>
        <time>2020-05-23T13:10:20Z</time>
      </trkpt>
      <trkpt lat="48.53978" lon="1.95258">
        <ele>136</ele>
        <time>2020-05-23T13:10:34Z</time>
      </trkpt>
      <trkpt lat="48.53956" lon="1.95261">
        <ele>136</ele>
        <time>2020-05-23T13:11:04Z</time>
      </trkpt>
      <trkpt lat="48.53947" lon="1.9526">
        <ele>136</ele>
        <time>2020-05-23T13:11:16Z</time>
      </trkpt>
      <trkpt lat="48.53936" lon="1.95255">
        <ele>135</ele>
        <time>2020-05-23T13:11:31Z</time>
      </trkpt>
      <trkpt lat="48.53928" lon="1.95242">
        <ele>134</ele>
        <time>2020-05-23T13:11:47Z</time>
      </trkpt>
      <trkpt lat="48.5392" lon="1.95218">
        <ele>131</ele>
        <time>2020-05-23T13:12:11Z</time>
      </trkpt>
      <trkpt lat="48.53909" lon="1.95191">
        <ele>128</ele>
        <time>2020-05-23T13:12:39Z</time>
      </trkpt>
      <trkpt lat="48.53886" lon="1.95172">
        <ele>126</ele>
        <time>2020-05-23T13:13:14Z</time>
      </trkpt>
      <trkpt lat="48.53852" lon="1.95262">
        <ele>133</ele>
        <time>2020-05-23T13:14:45Z</time>
      </trkpt>
      <trkpt lat="48.53839" lon="1.95311">
        <ele>136</ele>
        <time>2020-05-23T13:15:32Z</time>
      </trkpt>
      <trkpt lat="48.53852" lon="1.95351">
        <ele>141</ele>
        <time>2020-05-23T13:16:11Z</time>
      </trkpt>
      <trkpt lat="48.53856" lon="1.95402">
        <ele>146</ele>
        <time>2020-05-23T13:16:57Z</time>
      </trkpt>
      <trkpt lat="48.53843" lon="1.9542">
        <ele>146</ele>
        <time>2020-05-23T13:17:20Z</time>
      </trkpt>
      <trkpt lat="48.53818" lon="1.95431">
        <ele>144</ele>
        <time>2020-05-23T13:17:55Z</time>
      </trkpt>
      <trkpt lat="48.53782" lon="1.95439">
        <ele>141</ele>
        <time>2020-05-23T13:18:43Z</time>
      </trkpt>
      <trkpt lat="48.53772" lon="1.95456">
        <ele>142</ele>
        <time>2020-05-23T13:19:03Z</time>
      </trkpt>
      <trkpt lat="48.53743" lon="1.9553">
        <ele>145</ele>
        <time>2020-05-23T13:20:19Z</time>
      </trkpt>
      <trkpt lat="48.53732" lon="1.95592">
        <ele>146</ele>
        <time>2020-05-23T13:21:16Z</time>
      </trkpt>
      <trkpt lat="48.53733" lon="1.95623">
        <ele>147</ele>
        <time>2020-05-23T13:21:44Z</time>
      </trkpt>
      <trkpt lat="48.53731" lon="1.95657">
        <ele>148</ele>
        <time>2020-05-23T13:22:14Z</time>
      </trkpt>
      <trkpt lat="48.53714" lon="1.95691">
        <ele>147</ele>
        <time>2020-05-23T13:22:51Z</time>
      </trkpt>
      <trkpt lat="48.53704" lon="1.95706">
        <ele>147</ele>
        <time>2020-05-23T13:23:10Z</time>
      </trkpt>
      <trkpt lat="48.53665" lon="1.9574">
        <ele>145</ele>
        <time>2020-05-23T13:24:10Z</time>
      </trkpt>
      <trkpt lat="48.53641" lon="1.958">
        <ele>145</ele>
        <time>2020-05-23T13:25:12Z</time>
      </trkpt>
      <trkpt lat="48.53633" lon="1.95833">
        <ele>146</ele>
        <time>2020-05-23T13:25:43Z</time>
      </trkpt>
      <trkpt lat="48.53608" lon="1.95907">
        <ele>144</ele>
        <time>2020-05-23T13:26:57Z</time>
      </trkpt>
      <trkpt lat="48.53591" lon="1.9594">
        <ele>144</ele>
        <time>2020-05-23T13:27:34Z</time>
      </trkpt>
      <trkpt lat="48.5357" lon="1.95999">
        <ele>145</ele>
        <time>2020-05-23T13:28:33Z</time>
      </trkpt>
      <trkpt lat="48.53552" lon="1.96027">
        <ele>144</ele>
        <time>2020-05-23T13:29:07Z</time>
      </trkpt>
      <trkpt lat="48.53512" lon="1.96076">
        <ele>141</ele>
        <time>2020-05-23T13:30:16Z</time>
      </trkpt>
      <trkpt lat="48.53513" lon="1.96079">
        <ele>142</ele>
        <time>2020-05-23T13:30:19Z</time>
      </trkpt>
      <trkpt lat="48.53517" lon="1.96092">
        <ele>143</ele>
        <time>2020-05-23T13:30:32Z</time>
      </trkpt>
      <trkpt lat="48.53527" lon="1.96176">
        <ele>146</ele>
        <time>2020-05-23T13:31:47Z</time>
      </trkpt>
      <trkpt lat="48.53524" lon="1.96213">
        <ele>147</ele>
        <time>2020-05-23T13:32:20Z</time>
      </trkpt>
      <trkpt lat="48.53518" lon="1.96249">
        <ele>148</ele>
        <time>2020-05-23T13:32:53Z</time>
      </trkpt>
      <trkpt lat="48.53502" lon="1.96303">
        <ele>151</ele>
        <time>2020-05-23T13:33:45Z</time>
      </trkpt>
      <trkpt lat="48.53465" lon="1.96373">
        <ele>151</ele>
        <time>2020-05-23T13:35:04Z</time>
      </trkpt>
      <trkpt lat="48.53451" lon="1.964">
        <ele>152</ele>
        <time>2020-05-23T13:35:35Z</time>
      </trkpt>
      <trkpt lat="48.53426" lon="1.96451">
        <ele>153</ele>
        <time>2020-05-23T13:36:31Z</time>
      </trkpt>
      <trkpt lat="48.5338" lon="1.96588">
        <ele>149</ele>
        <time>2020-05-23T13:38:46Z</time>
      </trkpt>
      <trkpt lat="48.53353" lon="1.96654">
        <ele>147</ele>
        <time>2020-05-23T13:39:55Z</time>
      </trkpt>
      <trkpt lat="48.53304" lon="1.96739">
        <ele>147</ele>
        <time>2020-05-23T13:41:35Z</time>
      </trkpt>
      <trkpt lat="48.53289" lon="1.96766">
        <ele>147</ele>
        <time>2020-05-23T13:42:06Z</time>
      </trkpt>
      <trkpt lat="48.53328" lon="1.9682">
        <ele>156</ele>
        <time>2020-05-23T13:43:16Z</time>
      </trkpt>
      <trkpt lat="48.53347" lon="1.96861">
        <ele>157</ele>
        <time>2020-05-23T13:44:00Z</time>
      </trkpt>
      <trkpt lat="48.5335" lon="1.96883">
        <ele>157</ele>
        <time>2020-05-23T13:44:20Z</time>
      </trkpt>
      <trkpt lat="48.53347" lon="1.969">
        <ele>157</ele>
        <time>2020-05-23T13:44:36Z</time>
      </trkpt>
      <trkpt lat="48.5334" lon="1.96913">
        <ele>156</ele>
        <time>2020-05-23T13:44:51Z</time>
      </trkpt>
      <trkpt lat="48.53362" lon="1.96922">
        <ele>157</ele>
        <time>2020-05-23T13:45:21Z</time>
      </trkpt>
      <trkpt lat="48.5334" lon="1.96913">
        <ele>156</ele>
        <time>2020-05-23T13:45:52Z</time>
      </trkpt>
      <trkpt lat="48.53319" lon="1.9691">
        <ele>155</ele>
        <time>2020-05-23T13:46:20Z</time>
      </trkpt>
      <trkpt lat="48.53282" lon="1.96901">
        <ele>152</ele>
        <time>2020-05-23T13:47:10Z</time>
      </trkpt>
      <trkpt lat="48.5327" lon="1.96902">
        <ele>151</ele>
        <time>2020-05-23T13:47:26Z</time>
      </trkpt>
      <trkpt lat="48.53226" lon="1.96924">
        <ele>148</ele>
        <time>2020-05-23T13:48:28Z</time>
      </trkpt>
      <trkpt lat="48.53206" lon="1.96932">
        <ele>147</ele>
        <time>2020-05-23T13:48:55Z</time>
      </trkpt>
      <trkpt lat="48.53199" lon="1.96933">
        <ele>146</ele>
        <time>2020-05-23T13:49:05Z</time>
      </trkpt>
      <trkpt lat="48.5319" lon="1.96932">
        <ele>145</ele>
        <time>2020-05-23T13:49:17Z</time>
      </trkpt>
      <trkpt lat="48.53179" lon="1.96928">
        <ele>144</ele>
        <time>2020-05-23T13:49:32Z</time>
      </trkpt>
      <trkpt lat="48.5315" lon="1.969">
        <ele>139</ele>
        <time>2020-05-23T13:50:18Z</time>
      </trkpt>
      <trkpt lat="48.53108" lon="1.96871">
        <ele>131</ele>
        <time>2020-05-23T13:51:19Z</time>
      </trkpt>
      <trkpt lat="48.53087" lon="1.96855">
        <ele>126</ele>
        <time>2020-05-23T13:51:51Z</time>
      </trkpt>
      <trkpt lat="48.53078" lon="1.96847">
        <ele>124</ele>
        <time>2020-05-23T13:52:05Z</time>
      </trkpt>
      <trkpt lat="48.53074" lon="1.96852">
        <ele>124</ele>
        <time>2020-05-23T13:52:12Z</time>
      </trkpt>
    </trkseg>
  </trk>
</gpx>